createdAt,value
2019-01-06T00:01:55.933Z,88.32
2019-01-06T00:04:53.117Z,88.42
2019-01-06T00:07:42.844Z,88.46
2019-01-06T00:10:36.983Z,88.38
2019-01-06T00:13:32.906Z,88.38
2019-01-06T00:16:36.295Z,88.49
2019-01-06T00:19:37.354Z,88.53
2019-01-06T00:22:37.230Z,88.26
2019-01-06T00:25:48.539Z,88.33
2019-01-06T00:28:37.744Z,88.33
2019-01-06T00:31:36.803Z,88.38
2019-01-06T00:34:34.086Z,88.42
2019-01-06T00:37:31.376Z,88.39
2019-01-06T00:40:37.280Z,88.20
2019-01-06T00:43:35.709Z,88.19
2019-01-06T00:46:33.320Z,88.17
2019-01-06T00:49:22.609Z,88.02
2019-01-06T00:52:25.450Z,87.87
2019-01-06T00:55:23.333Z,87.76
2019-01-06T00:58:12.923Z,87.77
2019-01-06T01:01:17.504Z,87.71
2019-01-06T01:04:07.231Z,87.64
2019-01-06T01:07:22.662Z,87.79
2019-01-06T01:10:13.374Z,87.81
2019-01-06T01:12:57.392Z,87.84
2019-01-06T01:16:04.090Z,87.73
2019-01-06T01:18:51.873Z,87.85
2019-01-06T01:21:44.576Z,87.65
2019-01-06T01:24:36.692Z,87.66
2019-01-06T01:27:45.393Z,87.55
2019-01-06T01:30:35.890Z,87.64
2019-01-06T01:33:44.888Z,87.77
2019-01-06T01:36:53.287Z,87.84
2019-01-06T01:39:49.975Z,88.09
2019-01-06T01:42:39.548Z,88.40
2019-01-06T01:45:42.760Z,88.47
2019-01-06T01:48:33.046Z,88.59
2019-01-06T01:51:19.099Z,88.63
2019-01-06T01:54:11.406Z,88.64
2019-01-06T01:57:11.024Z,88.57
2019-01-06T02:00:00.599Z,88.46
2019-01-06T02:02:53.288Z,88.30
2019-01-06T02:05:42.805Z,88.20
2019-01-06T02:08:34.121Z,88.06
2019-01-06T02:11:15.789Z,87.83
2019-01-06T02:14:05.031Z,87.92
2019-01-06T02:17:07.827Z,87.75
2019-01-06T02:20:04.205Z,87.75
2019-01-06T02:22:56.000Z,87.80
2019-01-06T02:25:39.867Z,87.65
2019-01-06T02:28:31.176Z,87.80
2019-01-06T02:31:21.925Z,87.65
2019-01-06T02:34:11.389Z,87.63
2019-01-06T02:37:05.165Z,87.61
2019-01-06T02:40:05.127Z,87.58
2019-01-06T02:42:54.696Z,87.67
2019-01-06T02:45:49.848Z,87.58
2019-01-06T02:48:46.005Z,87.53
2019-01-06T02:51:34.791Z,87.47
2019-01-06T02:54:26.408Z,87.52
2019-01-06T02:57:23.571Z,87.55
2019-01-06T03:00:16.332Z,87.60
2019-01-06T03:03:07.430Z,87.47
2019-01-06T03:06:10.289Z,87.37
2019-01-06T03:09:04.073Z,87.29
2019-01-06T03:12:05.468Z,87.35
2019-01-06T03:14:54.928Z,87.41
2019-01-06T03:17:47.380Z,87.22
2019-01-06T03:20:34.424Z,87.33
2019-01-06T03:23:29.073Z,87.38
2019-01-06T03:26:32.541Z,87.12
2019-01-06T03:29:27.974Z,87.29
2019-01-06T03:32:13.785Z,87.21
2019-01-06T03:35:02.731Z,87.12
2019-01-06T03:38:01.070Z,87.08
2019-01-06T03:41:09.931Z,86.86
2019-01-06T03:43:53.380Z,86.88
2019-01-06T03:46:57.782Z,86.84
2019-01-06T03:50:06.899Z,86.97
2019-01-06T03:52:59.048Z,87.13
2019-01-06T03:55:48.367Z,87.14
2019-01-06T03:58:44.848Z,87.20
2019-01-06T04:01:34.484Z,87.12
2019-01-06T04:04:25.333Z,86.98
2019-01-06T04:07:14.768Z,87.18
2019-01-06T04:10:18.950Z,87.09
2019-01-06T04:13:25.088Z,86.96
2019-01-06T04:16:14.818Z,87.12
2019-01-06T04:19:20.840Z,87.22
2019-01-06T04:22:22.681Z,87.26
2019-01-06T04:25:12.206Z,87.28
2019-01-06T04:28:22.849Z,87.37
2019-01-06T04:31:19.513Z,87.17
2019-01-06T04:34:18.740Z,87.07
2019-01-06T04:37:03.228Z,87.12
2019-01-06T04:39:52.886Z,87.02
2019-01-06T04:42:39.509Z,87.16
2019-01-06T04:45:37.505Z,86.99
2019-01-06T04:48:24.694Z,86.98
2019-01-06T04:51:16.151Z,86.96
2019-01-06T04:54:09.943Z,87.04
2019-01-06T04:57:06.745Z,86.91
2019-01-06T05:00:09.815Z,86.73
2019-01-06T05:03:03.320Z,86.63
2019-01-06T05:05:52.920Z,86.66
2019-01-06T05:08:55.549Z,87.03
2019-01-06T05:11:58.618Z,86.92
2019-01-06T05:14:48.214Z,87.09
2019-01-06T05:17:43.445Z,87.22
2019-01-06T05:20:40.535Z,87.26
2019-01-06T05:23:40.664Z,87.15
2019-01-06T05:26:30.066Z,87.13
2019-01-06T05:29:23.666Z,87.19
2019-01-06T05:32:09.222Z,86.93
2019-01-06T05:35:09.120Z,86.96
2019-01-06T05:37:58.514Z,86.99
2019-01-06T05:41:04.610Z,86.78
2019-01-06T05:44:01.423Z,86.67
2019-01-06T05:46:43.003Z,86.65
2019-01-06T05:49:37.699Z,86.38
2019-01-06T05:52:27.040Z,86.55
2019-01-06T05:55:16.458Z,86.73
2019-01-06T05:58:02.834Z,86.55
2019-01-06T06:01:04.793Z,86.57
2019-01-06T06:03:48.453Z,86.58
2019-01-06T06:06:39.691Z,86.63
2019-01-06T06:09:30.432Z,86.59
2019-01-06T06:12:17.953Z,86.45
2019-01-06T06:15:07.648Z,86.44
2019-01-06T06:18:07.347Z,86.38
2019-01-06T06:20:58.106Z,86.31
2019-01-06T06:23:58.187Z,86.32
2019-01-06T06:26:47.702Z,86.31
2019-01-06T06:29:41.504Z,86.26
2019-01-06T06:32:31.015Z,86.20
2019-01-06T06:35:21.073Z,86.25
2019-01-06T06:38:14.942Z,86.41
2019-01-06T06:41:02.804Z,86.60
2019-01-06T06:44:02.532Z,86.62
2019-01-06T06:46:56.756Z,86.77
2019-01-06T06:49:46.058Z,86.79
2019-01-06T06:52:37.881Z,86.74
2019-01-06T06:55:21.412Z,86.64
2019-01-06T06:58:33.708Z,86.63
2019-01-06T07:02:39.315Z,86.62
2019-01-06T07:05:34.451Z,86.45
2019-01-06T07:08:31.140Z,86.44
2019-01-06T07:11:23.959Z,86.62
2019-01-06T07:14:19.307Z,86.61
2019-01-06T07:18:22.626Z,86.69
2019-01-06T07:21:26.525Z,86.50
2019-01-06T07:24:16.421Z,86.51
2019-01-06T07:27:21.048Z,86.48
2019-01-06T07:30:29.318Z,86.44
2019-01-06T07:33:10.745Z,86.33
2019-01-06T07:36:00.330Z,86.39
2019-01-06T07:38:54.089Z,86.37
2019-01-06T07:41:46.600Z,86.36
2019-01-06T07:44:38.403Z,86.51
2019-01-06T07:47:32.069Z,86.45
2019-01-06T07:50:24.560Z,86.24
2019-01-06T07:53:18.416Z,86.34
2019-01-06T07:56:09.155Z,86.36
2019-01-06T07:58:59.761Z,86.38
2019-01-06T08:01:51.404Z,86.24
2019-01-06T08:04:41.879Z,86.42
2019-01-06T08:07:35.594Z,86.26
2019-01-06T08:10:36.522Z,86.33
2019-01-06T08:13:25.915Z,86.40
2019-01-06T08:16:17.041Z,86.52
2019-01-06T08:19:07.659Z,86.34
2019-01-06T08:22:10.858Z,86.33
2019-01-06T08:25:03.222Z,86.35
2019-01-06T08:28:10.262Z,86.60
2019-01-06T08:31:05.100Z,86.67
2019-01-06T08:33:57.623Z,86.56
2019-01-06T08:37:06.483Z,86.26
2019-01-06T08:39:57.406Z,86.02
2019-01-06T08:43:07.597Z,86.13
2019-01-06T08:46:00.034Z,86.09
2019-01-06T08:48:49.463Z,85.86
2019-01-06T08:51:42.265Z,85.96
2019-01-06T08:54:33.379Z,85.93
2019-01-06T08:57:43.781Z,85.89
2019-01-06T09:00:52.839Z,85.89
2019-01-06T09:03:42.181Z,86.05
2019-01-06T09:06:32.938Z,85.81
2019-01-06T09:09:26.024Z,85.88
2019-01-06T09:12:31.178Z,86.09
2019-01-06T09:15:23.348Z,86.11
2019-01-06T09:18:25.142Z,86.11
2019-01-06T09:21:20.455Z,85.96
2019-01-06T09:24:11.088Z,85.85
2019-01-06T09:27:08.127Z,85.94
2019-01-06T09:29:56.656Z,85.98
2019-01-06T09:32:46.044Z,85.88
2019-01-06T09:35:37.492Z,85.98
2019-01-06T09:38:28.372Z,85.70
2019-01-06T09:41:22.112Z,85.95
2019-01-06T09:44:28.539Z,86.01
2019-01-06T09:47:34.419Z,86.05
2019-01-06T09:50:25.084Z,86.01
2019-01-06T09:53:18.584Z,85.65
2019-01-06T09:56:17.644Z,85.77
2019-01-06T09:59:24.058Z,85.73
2019-01-06T10:02:21.610Z,85.58
2019-01-06T10:05:22.515Z,85.49
2019-01-06T10:08:26.916Z,85.42
2019-01-06T10:11:22.819Z,85.18
2019-01-06T10:14:10.644Z,84.68
2019-01-06T10:17:16.115Z,84.78
2019-01-06T10:20:00.723Z,84.89
2019-01-06T10:22:49.772Z,85.18
2019-01-06T10:25:55.671Z,85.23
2019-01-06T10:28:52.532Z,85.29
2019-01-06T10:32:03.638Z,85.31
2019-01-06T10:34:55.439Z,85.26
2019-01-06T10:37:59.406Z,85.43
2019-01-06T10:40:43.908Z,85.47
2019-01-06T10:43:34.359Z,85.37
2019-01-06T10:46:30.999Z,85.19
2019-01-06T10:49:20.779Z,85.12
2019-01-06T10:52:14.336Z,84.87
2019-01-06T10:55:03.910Z,84.90
2019-01-06T10:58:15.406Z,84.71
2019-01-06T11:01:14.454Z,84.88
2019-01-06T11:04:10.747Z,84.95
2019-01-06T11:07:10.632Z,84.50
2019-01-06T11:10:01.127Z,84.56
2019-01-06T11:12:51.987Z,84.80
2019-01-06T11:15:48.559Z,84.95
2019-01-06T11:18:54.447Z,84.91
2019-01-06T11:21:43.849Z,84.88
2019-01-06T11:24:46.511Z,84.79
2019-01-06T11:27:40.041Z,84.63
2019-01-06T11:30:30.539Z,84.68
2019-01-06T11:33:30.451Z,85.10
2019-01-06T11:36:33.261Z,85.23
2019-01-06T11:39:24.675Z,85.30
2019-01-06T11:42:17.470Z,85.14
2019-01-06T11:45:06.805Z,85.20
2019-01-06T11:47:55.856Z,85.14
2019-01-06T11:50:49.096Z,84.96
2019-01-06T11:53:45.710Z,85.07
2019-01-06T11:56:51.533Z,85.01
2019-01-06T11:59:41.303Z,85.20
2019-01-06T12:02:30.510Z,84.96
2019-01-06T12:05:20.250Z,84.98
2019-01-06T12:08:12.701Z,84.95
2019-01-06T12:11:13.650Z,85.08
2019-01-06T12:14:16.486Z,85.00
2019-01-06T12:17:10.077Z,84.82
2019-01-06T12:20:00.580Z,84.85
2019-01-06T12:22:49.990Z,84.99
2019-01-06T12:25:41.350Z,85.09
2019-01-06T12:28:37.234Z,85.07
2019-01-06T12:31:33.829Z,85.01
2019-01-06T12:34:24.637Z,85.00
2019-01-06T12:37:20.919Z,84.96
2019-01-06T12:40:23.389Z,84.94
2019-01-06T12:43:14.160Z,85.16
2019-01-06T12:46:07.494Z,85.28
2019-01-06T12:48:58.495Z,85.26
2019-01-06T12:51:45.467Z,85.27
2019-01-06T12:54:40.128Z,85.41
2019-01-06T12:57:44.179Z,85.31
2019-01-06T13:00:35.607Z,85.30
2019-01-06T13:03:47.555Z,85.22
2019-01-06T13:06:37.214Z,85.22
2019-01-06T13:09:28.363Z,84.99
2019-01-06T13:12:19.638Z,84.82
2019-01-06T13:15:25.603Z,85.07
2019-01-06T13:18:19.240Z,85.08
2019-01-06T13:21:10.021Z,84.91
2019-01-06T13:24:13.102Z,84.96
2019-01-06T13:27:02.695Z,84.94
2019-01-06T13:29:50.806Z,84.97
2019-01-06T13:32:44.589Z,84.83
2019-01-06T13:35:38.261Z,84.64
2019-01-06T13:38:29.038Z,84.64
2019-01-06T13:41:31.118Z,84.73
2019-01-06T13:44:34.014Z,84.72
2019-01-06T13:47:30.745Z,84.79
2019-01-06T13:50:24.291Z,84.87
2019-01-06T13:53:12.933Z,84.77
2019-01-06T13:56:02.695Z,84.95
2019-01-06T13:59:01.189Z,84.91
2019-01-06T14:02:01.113Z,84.79
2019-01-06T14:04:50.788Z,84.64
2019-01-06T14:07:44.368Z,84.57
2019-01-06T14:10:53.297Z,84.60
2019-01-06T14:13:49.423Z,84.72
2019-01-06T14:16:46.906Z,84.81
2019-01-06T14:19:36.459Z,84.84
2019-01-06T14:22:36.364Z,85.11
2019-01-06T14:25:27.867Z,85.24
2019-01-06T14:28:18.675Z,85.53
2019-01-06T14:31:21.309Z,85.56
2019-01-06T14:34:04.344Z,85.65
2019-01-06T14:37:02.676Z,85.67
2019-01-06T14:40:02.561Z,85.72
2019-01-06T14:42:51.652Z,85.51
2019-01-06T14:45:48.216Z,85.46
2019-01-06T14:48:39.227Z,85.50
2019-01-06T14:51:40.287Z,85.70
2019-01-06T14:54:31.280Z,85.63
2019-01-06T14:57:15.918Z,85.58
2019-01-06T15:00:05.188Z,85.34
2019-01-06T15:02:57.868Z,85.43
2019-01-06T15:05:50.062Z,85.36
2019-01-06T15:08:39.279Z,85.18
2019-01-06T15:11:44.776Z,85.02
2019-01-06T15:14:47.417Z,85.25
2019-01-06T15:17:49.740Z,85.20
2019-01-06T15:20:46.640Z,85.04
2019-01-06T15:23:46.773Z,85.08
2019-01-06T15:26:55.730Z,85.02
2019-01-06T15:29:52.264Z,84.82
2019-01-06T15:32:45.792Z,84.65
2019-01-06T15:35:35.395Z,84.70
2019-01-06T15:38:25.885Z,84.59
2019-01-06T15:41:22.592Z,84.49
2019-01-06T15:44:12.167Z,84.39
2019-01-06T15:47:17.904Z,84.38
2019-01-06T15:50:20.706Z,84.44
2019-01-06T15:53:09.184Z,84.65
2019-01-06T15:56:05.426Z,84.84
2019-01-06T15:59:02.294Z,84.87
2019-01-06T16:01:51.670Z,84.89
2019-01-06T16:04:42.808Z,84.72
2019-01-06T16:07:33.623Z,84.63
2019-01-06T16:10:24.765Z,84.70
2019-01-06T16:13:15.963Z,84.80
2019-01-06T16:16:05.707Z,84.88
2019-01-06T16:19:13.619Z,84.74
2019-01-06T16:22:03.555Z,84.67
2019-01-06T16:24:56.170Z,84.62
2019-01-06T16:27:47.211Z,84.49
2019-01-06T16:30:50.189Z,84.59
2019-01-06T16:33:40.578Z,84.40
2019-01-06T16:36:30.251Z,84.32
2019-01-06T16:39:20.026Z,84.47
2019-01-06T16:42:12.253Z,84.57
2019-01-06T16:45:07.785Z,84.53
2019-01-06T16:48:10.796Z,84.51
2019-01-06T16:51:06.434Z,84.53
2019-01-06T16:54:00.250Z,84.62
2019-01-06T16:56:51.144Z,84.54
2019-01-06T16:59:46.114Z,84.62
2019-01-06T17:02:35.156Z,84.73
2019-01-06T17:05:25.703Z,84.81
2019-01-06T17:08:15.426Z,84.82
2019-01-06T17:11:04.670Z,84.84
2019-01-06T17:13:54.146Z,84.72
2019-01-06T17:16:48.110Z,84.72
2019-01-06T17:19:51.113Z,84.78
2019-01-06T17:22:45.051Z,84.78
2019-01-06T17:25:36.160Z,84.62
2019-01-06T17:28:25.489Z,84.65
2019-01-06T17:31:19.055Z,84.52
2019-01-06T17:34:09.536Z,84.51
2019-01-06T17:37:00.410Z,84.58
2019-01-06T17:40:00.961Z,84.63
2019-01-06T17:42:48.213Z,84.53
2019-01-06T17:45:37.931Z,84.32
2019-01-06T17:48:29.518Z,84.41
2019-01-06T17:51:30.453Z,84.32
2019-01-06T17:54:16.753Z,84.23
2019-01-06T17:57:06.436Z,84.44
2019-01-06T17:59:57.198Z,84.62
2019-01-06T18:02:46.866Z,84.55
2019-01-06T18:05:36.278Z,84.56
2019-01-06T18:08:26.470Z,84.39
2019-01-06T18:11:25.951Z,84.46
2019-01-06T18:14:35.080Z,84.46
2019-01-06T18:17:28.868Z,84.57
2019-01-06T18:20:18.368Z,84.53
2019-01-06T18:23:09.247Z,84.70
2019-01-06T18:26:03.120Z,84.70
2019-01-06T18:28:52.716Z,84.84
2019-01-06T18:31:55.733Z,84.94
2019-01-06T18:34:59.423Z,84.91
2019-01-06T18:37:51.676Z,84.86
2019-01-06T18:40:43.995Z,84.92
2019-01-06T18:43:40.877Z,85.11
2019-01-06T18:46:31.637Z,85.08
2019-01-06T18:49:22.475Z,85.06
2019-01-06T18:52:25.413Z,85.15
2019-01-06T18:55:16.207Z,85.04
2019-01-06T18:58:02.649Z,84.89
2019-01-06T19:01:08.742Z,85.06
2019-01-06T19:03:58.300Z,85.07
2019-01-06T19:06:47.378Z,85.12
2019-01-06T19:09:47.190Z,85.04
2019-01-06T19:12:40.854Z,85.07
2019-01-06T19:15:37.252Z,85.10
2019-01-06T19:18:28.152Z,85.10
2019-01-06T19:21:18.352Z,85.00
2019-01-06T19:24:08.158Z,85.02
2019-01-06T19:27:05.423Z,85.11
2019-01-06T19:30:04.889Z,85.03
2019-01-06T19:32:52.401Z,85.09
2019-01-06T19:35:41.738Z,84.96
2019-01-06T19:38:31.301Z,85.10
2019-01-06T19:41:21.690Z,84.98
2019-01-06T19:44:07.811Z,84.83
2019-01-06T19:47:04.934Z,84.79
2019-01-06T19:49:47.163Z,84.77
2019-01-06T19:52:52.793Z,84.86
2019-01-06T19:55:41.905Z,84.72
2019-01-06T19:58:50.963Z,84.89
2019-01-06T20:01:44.267Z,84.92
2019-01-06T20:04:44.378Z,84.87
2019-01-06T20:07:50.541Z,84.92
2019-01-06T20:10:40.431Z,85.05
2019-01-06T20:13:29.651Z,84.93
2019-01-06T20:16:15.037Z,84.83
2019-01-06T20:19:04.594Z,84.76
2019-01-06T20:22:00.995Z,84.67
2019-01-06T20:25:06.805Z,84.55
2019-01-06T20:28:12.572Z,84.43
2019-01-06T20:31:05.843Z,84.43
2019-01-06T20:34:14.525Z,84.49
2019-01-06T20:36:59.802Z,84.58
2019-01-06T20:39:55.849Z,84.60
2019-01-06T20:42:45.788Z,84.68
2019-01-06T20:45:39.541Z,84.72
2019-01-06T20:48:29.348Z,84.59
2019-01-06T20:51:31.873Z,84.52
2019-01-06T20:54:21.196Z,84.75
2019-01-06T20:57:10.888Z,84.86
2019-01-06T21:00:00.870Z,84.78
2019-01-06T21:02:50.195Z,84.79
2019-01-06T21:05:40.549Z,84.85
2019-01-06T21:08:30.987Z,84.86
2019-01-06T21:11:34.029Z,84.88
2019-01-06T21:14:23.639Z,84.79
2019-01-06T21:17:13.148Z,84.72
2019-01-06T21:20:02.352Z,84.73
2019-01-06T21:22:53.957Z,84.80
2019-01-06T21:25:49.573Z,84.82
2019-01-06T21:28:46.448Z,84.82
2019-01-06T21:31:49.629Z,84.98
2019-01-06T21:34:47.593Z,84.91
2019-01-06T21:37:45.054Z,84.94
2019-01-06T21:40:35.618Z,85.11
2019-01-06T21:43:25.147Z,84.99
2019-01-06T21:46:18.857Z,84.87
2019-01-06T21:49:09.647Z,85.01
2019-01-06T21:51:57.497Z,84.99
2019-01-06T21:54:46.983Z,85.08
2019-01-06T21:57:33.877Z,85.07
2019-01-06T22:00:37.678Z,84.98
2019-01-06T22:03:27.125Z,85.08
2019-01-06T22:06:17.111Z,84.94
2019-01-06T22:09:06.750Z,85.10
2019-01-06T22:11:56.752Z,84.79
2019-01-06T22:14:47.505Z,85.09
2019-01-06T22:17:47.363Z,85.49
2019-01-06T22:20:48.521Z,85.65
2019-01-06T22:23:41.077Z,85.69
2019-01-06T22:26:37.993Z,85.69
2019-01-06T22:29:25.993Z,85.83
2019-01-06T22:32:15.680Z,85.91
2019-01-06T22:35:12.126Z,85.90
2019-01-06T22:38:11.031Z,85.79
2019-01-06T22:41:10.695Z,85.74
2019-01-06T22:44:01.478Z,85.86
2019-01-06T22:46:59.822Z,85.84
2019-01-06T22:49:56.387Z,85.58
2019-01-06T22:52:45.968Z,85.56
2019-01-06T22:55:42.787Z,85.78
2019-01-06T22:58:32.380Z,85.84
2019-01-06T23:01:25.646Z,85.85
2019-01-06T23:04:12.939Z,85.79
2019-01-06T23:07:07.725Z,85.68
2019-01-06T23:10:16.667Z,85.73
2019-01-06T23:13:16.660Z,85.83
2019-01-06T23:16:01.840Z,85.78
2019-01-06T23:18:51.552Z,85.41
2019-01-06T23:21:57.795Z,85.36
2019-01-06T23:25:00.763Z,85.58
2019-01-06T23:27:54.590Z,85.67
2019-01-06T23:30:44.065Z,85.54
2019-01-06T23:33:33.310Z,85.60
2019-01-06T23:36:24.038Z,85.63
2019-01-06T23:39:14.949Z,85.59
2019-01-06T23:42:14.659Z,85.50
2019-01-06T23:45:14.016Z,85.45
2019-01-06T23:48:05.703Z,85.23
2019-01-06T23:51:06.214Z,85.06
2019-01-06T23:54:02.315Z,85.09
2019-01-06T23:56:56.194Z,85.23
2019-01-06T23:59:45.232Z,85.31
